sensor_id;sensor_type;location;lat;lon;timestamp;temperature;humidity
43995;DHT22;51687;52.160;5.298;2023-04-03T00:03:08;12.70;41.50
43995;DHT22;51687;52.160;5.298;2023-04-03T00:05:35;12.60;41.40
43995;DHT22;51687;52.160;5.298;2023-04-03T00:08:02;12.60;41.50
43995;DHT22;51687;52.160;5.298;2023-04-03T00:10:28;12.60;41.40
43995;DHT22;51687;52.160;5.298;2023-04-03T00:12:55;12.60;41.40
43995;DHT22;51687;52.160;5.298;2023-04-03T00:15:22;12.50;41.40
43995;DHT22;51687;52.160;5.298;2023-04-03T00:17:49;12.50;41.30
43995;DHT22;51687;52.160;5.298;2023-04-03T00:20:16;12.50;41.50
43995;DHT22;51687;52.160;5.298;2023-04-03T00:22:43;12.40;41.40
43995;DHT22;51687;52.160;5.298;2023-04-03T00:25:09;12.40;41.80
43995;DHT22;51687;52.160;5.298;2023-04-03T00:27:38;12.30;41.60
43995;DHT22;51687;52.160;5.298;2023-04-03T00:30:07;12.30;41.90
43995;DHT22;51687;52.160;5.298;2023-04-03T00:32:35;12.30;41.80
43995;DHT22;51687;52.160;5.298;2023-04-03T00:35:02;12.30;42.40
43995;DHT22;51687;52.160;5.298;2023-04-03T00:37:28;12.20;42.00
43995;DHT22;51687;52.160;5.298;2023-04-03T00:39:56;12.20;42.30
43995;DHT22;51687;52.160;5.298;2023-04-03T00:52:18;12.20;42.20
43995;DHT22;51687;52.160;5.298;2023-04-03T00:54:46;12.10;42.20
43995;DHT22;51687;52.160;5.298;2023-04-03T00:57:14;12.10;42.40
43995;DHT22;51687;52.160;5.298;2023-04-03T00:59:45;12.10;42.40
43995;DHT22;51687;52.160;5.298;2023-04-03T01:02:13;12.00;42.60
43995;DHT22;51687;52.160;5.298;2023-04-03T01:04:42;12.00;42.80
43995;DHT22;51687;52.160;5.298;2023-04-03T01:07:16;12.00;43.00
43995;DHT22;51687;52.160;5.298;2023-04-03T01:09:44;12.00;43.40
43995;DHT22;51687;52.160;5.298;2023-04-03T01:17:49;12.00;43.30
43995;DHT22;51687;52.160;5.298;2023-04-03T01:20:36;11.80;43.70
43995;DHT22;51687;52.160;5.298;2023-04-03T01:25:53;11.70;43.40
43995;DHT22;51687;52.160;5.298;2023-04-03T01:28:26;11.70;43.90
43995;DHT22;51687;52.160;5.298;2023-04-03T01:31:00;11.70;44.00
43995;DHT22;51687;52.160;5.298;2023-04-03T01:33:29;11.70;43.80
43995;DHT22;51687;52.160;5.298;2023-04-03T01:35:56;11.70;43.60
43995;DHT22;51687;52.160;5.298;2023-04-03T01:38:23;11.70;43.40
43995;DHT22;51687;52.160;5.298;2023-04-03T01:40:50;11.70;43.90
43995;DHT22;51687;52.160;5.298;2023-04-03T01:43:17;11.60;43.90
43995;DHT22;51687;52.160;5.298;2023-04-03T01:45:43;11.60;43.60
43995;DHT22;51687;52.160;5.298;2023-04-03T01:48:10;11.50;43.70
43995;DHT22;51687;52.160;5.298;2023-04-03T01:50:37;11.50;43.90
43995;DHT22;51687;52.160;5.298;2023-04-03T01:53:04;11.50;43.90
43995;DHT22;51687;52.160;5.298;2023-04-03T02:44:35;11.50;43.90
43995;DHT22;51687;52.160;5.298;2023-04-03T02:47:02;11.00;46.10
43995;DHT22;51687;52.160;5.298;2023-04-03T02:49:29;10.90;46.00
43995;DHT22;51687;52.160;5.298;2023-04-03T03:36:11;10.90;46.00
43995;DHT22;51687;52.160;5.298;2023-04-03T03:38:38;10.60;47.00
43995;DHT22;51687;52.160;5.298;2023-04-03T03:41:05;10.60;47.20
43995;DHT22;51687;52.160;5.298;2023-04-03T03:45:59;10.60;46.70
43995;DHT22;51687;52.160;5.298;2023-04-03T03:48:26;10.60;47.50
43995;DHT22;51687;52.160;5.298;2023-04-03T03:50:53;10.50;47.40
43995;DHT22;51687;52.160;5.298;2023-04-03T03:53:21;10.50;47.40
43995;DHT22;51687;52.160;5.298;2023-04-03T03:55:48;10.50;47.30
43995;DHT22;51687;52.160;5.298;2023-04-03T04:00:42;10.50;47.50
43995;DHT22;51687;52.160;5.298;2023-04-03T04:03:08;10.50;47.80
43995;DHT22;51687;52.160;5.298;2023-04-03T04:05:35;10.50;47.70
43995;DHT22;51687;52.160;5.298;2023-04-03T04:08:02;10.40;47.80
43995;DHT22;51687;52.160;5.298;2023-04-03T04:10:29;10.40;47.80
43995;DHT22;51687;52.160;5.298;2023-04-03T04:12:55;10.30;47.30
43995;DHT22;51687;52.160;5.298;2023-04-03T04:15:24;10.40;47.80
43995;DHT22;51687;52.160;5.298;2023-04-03T04:17:52;10.40;47.80
43995;DHT22;51687;52.160;5.298;2023-04-03T04:20:19;10.30;47.80
43995;DHT22;51687;52.160;5.298;2023-04-03T04:22:46;10.30;47.90
43995;DHT22;51687;52.160;5.298;2023-04-03T05:14:22;10.30;47.90
43995;DHT22;51687;52.160;5.298;2023-04-03T05:16:49;9.90;48.90
43995;DHT22;51687;52.160;5.298;2023-04-03T05:19:20;9.80;49.00
43995;DHT22;51687;52.160;5.298;2023-04-03T05:21:47;9.80;49.00
43995;DHT22;51687;52.160;5.298;2023-04-03T05:29:10;9.80;49.00
43995;DHT22;51687;52.160;5.298;2023-04-03T05:31:37;9.70;49.30
43995;DHT22;51687;52.160;5.298;2023-04-03T05:34:04;9.70;49.40
43995;DHT22;51687;52.160;5.298;2023-04-03T05:36:30;9.70;49.40
43995;DHT22;51687;52.160;5.298;2023-04-03T05:38:57;9.70;49.50
43995;DHT22;51687;52.160;5.298;2023-04-03T10:24:20;12.00;34.90
43995;DHT22;51687;52.160;5.298;2023-04-03T10:26:58;12.00;30.90
43995;DHT22;51687;52.160;5.298;2023-04-03T10:35:20;12.10;29.20
43995;DHT22;51687;52.160;5.298;2023-04-03T10:38:16;12.10;30.00
43995;DHT22;51687;52.160;5.298;2023-04-03T10:45:57;12.20;30.70
43995;DHT22;51687;52.160;5.298;2023-04-03T11:11:13;12.20;28.70
43995;DHT22;51687;52.160;5.298;2023-04-03T11:14:02;12.70;29.00
43995;DHT22;51687;52.160;5.298;2023-04-03T11:19:22;12.70;31.90
43995;DHT22;51687;52.160;5.298;2023-04-03T11:21:57;12.80;30.50
43995;DHT22;51687;52.160;5.298;2023-04-03T11:24:29;12.90;29.90
43995;DHT22;51687;52.160;5.298;2023-04-03T11:26:58;12.90;31.70
43995;DHT22;51687;52.160;5.298;2023-04-03T11:29:31;13.00;30.80
43995;DHT22;51687;52.160;5.298;2023-04-03T12:16:30;13.50;28.70
43995;DHT22;51687;52.160;5.298;2023-04-03T12:19:32;13.50;28.60
43995;DHT22;51687;52.160;5.298;2023-04-03T12:22:13;13.60;30.50
43995;DHT22;51687;52.160;5.298;2023-04-03T12:24:51;13.60;29.50
43995;DHT22;51687;52.160;5.298;2023-04-03T12:27:38;13.60;29.80
43995;DHT22;51687;52.160;5.298;2023-04-03T12:30:26;13.80;30.30
43995;DHT22;51687;52.160;5.298;2023-04-03T12:33:43;13.80;30.70
43995;DHT22;51687;52.160;5.298;2023-04-03T12:39:36;14.00;30.00
43995;DHT22;51687;52.160;5.298;2023-04-03T12:47:36;14.20;29.40
43995;DHT22;51687;52.160;5.298;2023-04-03T12:50:17;14.30;30.00
43995;DHT22;51687;52.160;5.298;2023-04-03T12:52:51;14.40;30.50
43995;DHT22;51687;52.160;5.298;2023-04-03T12:55:21;14.40;29.80
43995;DHT22;51687;52.160;5.298;2023-04-03T12:57:48;14.50;29.20
43995;DHT22;51687;52.160;5.298;2023-04-03T13:02:57;14.70;27.70
43995;DHT22;51687;52.160;5.298;2023-04-03T13:05:24;14.70;28.20
43995;DHT22;51687;52.160;5.298;2023-04-03T13:08:04;14.80;29.10
43995;DHT22;51687;52.160;5.298;2023-04-03T13:15:46;14.90;28.70
43995;DHT22;51687;52.160;5.298;2023-04-03T13:18:24;15.20;28.30
43995;DHT22;51687;52.160;5.298;2023-04-03T13:23:20;15.20;29.00
43995;DHT22;51687;52.160;5.298;2023-04-03T13:43:36;15.40;27.90
43995;DHT22;51687;52.160;5.298;2023-04-03T13:48:42;16.40;27.90
43995;DHT22;51687;52.160;5.298;2023-04-03T13:53:50;16.60;27.80
43995;DHT22;51687;52.160;5.298;2023-04-03T15:46:48;16.70;26.60
43995;DHT22;51687;52.160;5.298;2023-04-03T15:49:16;19.10;25.90
43995;DHT22;51687;52.160;5.298;2023-04-03T15:51:44;19.00;26.30
43995;DHT22;51687;52.160;5.298;2023-04-03T15:54:14;19.00;25.90
43995;DHT22;51687;52.160;5.298;2023-04-03T15:56:41;18.90;26.70
43995;DHT22;51687;52.160;5.298;2023-04-03T15:59:09;18.90;26.50
43995;DHT22;51687;52.160;5.298;2023-04-03T16:01:37;18.80;25.90
43995;DHT22;51687;52.160;5.298;2023-04-03T16:04:04;18.80;26.60
43995;DHT22;51687;52.160;5.298;2023-04-03T16:06:32;18.70;30.30
43995;DHT22;51687;52.160;5.298;2023-04-03T16:09:00;18.70;26.90
43995;DHT22;51687;52.160;5.298;2023-04-03T16:11:27;18.70;29.70
43995;DHT22;51687;52.160;5.298;2023-04-03T16:13:54;18.60;26.60
43995;DHT22;51687;52.160;5.298;2023-04-03T16:16:22;18.60;26.40
43995;DHT22;51687;52.160;5.298;2023-04-03T16:18:51;18.60;27.00
43995;DHT22;51687;52.160;5.298;2023-04-03T16:21:20;18.60;26.70
43995;DHT22;51687;52.160;5.298;2023-04-03T16:23:47;18.50;26.90
43995;DHT22;51687;52.160;5.298;2023-04-03T16:26:14;18.50;26.50
43995;DHT22;51687;52.160;5.298;2023-04-03T16:28:40;18.50;26.50
43995;DHT22;51687;52.160;5.298;2023-04-03T16:31:07;18.50;26.20
43995;DHT22;51687;52.160;5.298;2023-04-03T16:33:35;18.50;26.50
43995;DHT22;51687;52.160;5.298;2023-04-03T16:36:04;18.50;26.90
43995;DHT22;51687;52.160;5.298;2023-04-03T16:38:31;18.40;26.40
43995;DHT22;51687;52.160;5.298;2023-04-03T16:40:58;18.40;26.90
43995;DHT22;51687;52.160;5.298;2023-04-03T16:43:31;18.40;26.40
43995;DHT22;51687;52.160;5.298;2023-04-03T16:45:59;18.40;26.40
43995;DHT22;51687;52.160;5.298;2023-04-03T16:48:26;18.40;26.60
43995;DHT22;51687;52.160;5.298;2023-04-03T16:50:52;18.40;27.40
43995;DHT22;51687;52.160;5.298;2023-04-03T16:53:24;18.40;27.90
43995;DHT22;51687;52.160;5.298;2023-04-03T16:55:51;18.40;27.90
43995;DHT22;51687;52.160;5.298;2023-04-03T16:58:18;18.50;28.00
43995;DHT22;51687;52.160;5.298;2023-04-03T17:00:47;18.50;27.50
43995;DHT22;51687;52.160;5.298;2023-04-03T17:03:14;18.50;28.30
43995;DHT22;51687;52.160;5.298;2023-04-03T17:05:41;18.50;27.50
43995;DHT22;51687;52.160;5.298;2023-04-03T17:08:10;18.60;27.40
43995;DHT22;51687;52.160;5.298;2023-04-03T17:10:37;18.60;27.80
43995;DHT22;51687;52.160;5.298;2023-04-03T17:13:03;18.60;27.40
43995;DHT22;51687;52.160;5.298;2023-04-03T17:15:30;18.60;27.40
43995;DHT22;51687;52.160;5.298;2023-04-03T17:17:57;18.70;27.20
43995;DHT22;51687;52.160;5.298;2023-04-03T17:20:24;18.70;27.70
43995;DHT22;51687;52.160;5.298;2023-04-03T17:22:51;18.70;27.60
43995;DHT22;51687;52.160;5.298;2023-04-03T17:25:17;18.70;27.60
43995;DHT22;51687;52.160;5.298;2023-04-03T17:27:44;18.80;27.10
43995;DHT22;51687;52.160;5.298;2023-04-03T17:30:11;18.80;27.20
43995;DHT22;51687;52.160;5.298;2023-04-03T17:32:38;18.80;27.10
43995;DHT22;51687;52.160;5.298;2023-04-03T17:35:05;18.80;27.60
43995;DHT22;51687;52.160;5.298;2023-04-03T17:37:35;18.80;27.30
43995;DHT22;51687;52.160;5.298;2023-04-03T17:40:02;18.80;27.50
43995;DHT22;51687;52.160;5.298;2023-04-03T17:42:29;18.80;26.90
43995;DHT22;51687;52.160;5.298;2023-04-03T17:44:58;18.80;27.90
43995;DHT22;51687;52.160;5.298;2023-04-03T17:47:27;18.70;28.20
43995;DHT22;51687;52.160;5.298;2023-04-03T17:49:54;18.70;36.30
43995;DHT22;51687;52.160;5.298;2023-04-03T17:52:21;18.70;28.30
43995;DHT22;51687;52.160;5.298;2023-04-03T17:54:50;18.70;27.80
43995;DHT22;51687;52.160;5.298;2023-04-03T17:57:17;18.60;27.40
43995;DHT22;51687;52.160;5.298;2023-04-03T17:59:45;18.60;27.40
43995;DHT22;51687;52.160;5.298;2023-04-03T18:02:12;18.50;27.00
43995;DHT22;51687;52.160;5.298;2023-04-03T18:04:38;18.50;27.30
43995;DHT22;51687;52.160;5.298;2023-04-03T18:07:05;18.40;27.00
43995;DHT22;51687;52.160;5.298;2023-04-03T18:09:35;18.40;27.10
43995;DHT22;51687;52.160;5.298;2023-04-03T18:12:05;18.30;26.60
43995;DHT22;51687;52.160;5.298;2023-04-03T18:14:33;18.30;26.90
43995;DHT22;51687;52.160;5.298;2023-04-03T18:17:04;18.20;27.00
43995;DHT22;51687;52.160;5.298;2023-04-03T18:19:32;18.20;27.40
43995;DHT22;51687;52.160;5.298;2023-04-03T18:22:04;18.10;27.30
43995;DHT22;51687;52.160;5.298;2023-04-03T18:24:33;18.10;27.20
43995;DHT22;51687;52.160;5.298;2023-04-03T18:27:12;18.00;27.10
43995;DHT22;51687;52.160;5.298;2023-04-03T18:29:42;17.90;27.30
43995;DHT22;51687;52.160;5.298;2023-04-03T18:32:12;17.90;27.50
43995;DHT22;51687;52.160;5.298;2023-04-03T18:34:39;17.80;27.60
43995;DHT22;51687;52.160;5.298;2023-04-03T18:37:07;17.80;27.70
43995;DHT22;51687;52.160;5.298;2023-04-03T18:39:34;17.70;27.20
43995;DHT22;51687;52.160;5.298;2023-04-03T18:42:08;17.70;27.40
43995;DHT22;51687;52.160;5.298;2023-04-03T18:44:37;17.70;27.30
43995;DHT22;51687;52.160;5.298;2023-04-03T18:47:04;17.70;27.60
43995;DHT22;51687;52.160;5.298;2023-04-03T18:49:33;17.60;27.30
43995;DHT22;51687;52.160;5.298;2023-04-03T19:06:48;17.50;27.90
43995;DHT22;51687;52.160;5.298;2023-04-03T19:21:37;17.20;27.80
43995;DHT22;51687;52.160;5.298;2023-04-03T19:24:08;16.80;28.70
43995;DHT22;51687;52.160;5.298;2023-04-03T19:26:36;16.70;29.10
43995;DHT22;51687;52.160;5.298;2023-04-03T19:29:04;16.70;29.00
43995;DHT22;51687;52.160;5.298;2023-04-03T19:31:31;16.60;29.00
43995;DHT22;51687;52.160;5.298;2023-04-03T19:34:00;16.60;29.40
43995;DHT22;51687;52.160;5.298;2023-04-03T19:36:28;16.50;29.80
43995;DHT22;51687;52.160;5.298;2023-04-03T19:38:55;16.50;30.00
43995;DHT22;51687;52.160;5.298;2023-04-03T19:41:24;16.50;30.50
43995;DHT22;51687;52.160;5.298;2023-04-03T19:43:54;16.40;30.80
43995;DHT22;51687;52.160;5.298;2023-04-03T19:46:25;16.40;30.80
43995;DHT22;51687;52.160;5.298;2023-04-03T19:48:52;16.30;31.00
43995;DHT22;51687;52.160;5.298;2023-04-03T19:51:19;16.30;31.50
43995;DHT22;51687;52.160;5.298;2023-04-03T19:53:46;16.20;31.60
43995;DHT22;51687;52.160;5.298;2023-04-03T19:56:14;16.20;32.00
43995;DHT22;51687;52.160;5.298;2023-04-03T20:01:11;16.10;32.40
43995;DHT22;51687;52.160;5.298;2023-04-03T20:03:39;16.00;31.80
43995;DHT22;51687;52.160;5.298;2023-04-03T20:08:35;15.90;32.00
43995;DHT22;51687;52.160;5.298;2023-04-03T20:11:02;15.80;31.70
43995;DHT22;51687;52.160;5.298;2023-04-03T20:15:56;15.80;32.00
43995;DHT22;51687;52.160;5.298;2023-04-03T20:18:26;15.70;32.10
43995;DHT22;51687;52.160;5.298;2023-04-03T20:20:59;15.60;31.80
43995;DHT22;51687;52.160;5.298;2023-04-03T20:23:27;15.60;31.70
43995;DHT22;51687;52.160;5.298;2023-04-03T20:25:56;15.50;32.20
43995;DHT22;51687;52.160;5.298;2023-04-03T20:28:37;15.50;33.10
43995;DHT22;51687;52.160;5.298;2023-04-03T20:36:00;15.50;33.00
43995;DHT22;51687;52.160;5.298;2023-04-03T20:43:25;15.20;33.50
43995;DHT22;51687;52.160;5.298;2023-04-03T20:45:53;15.10;33.90
43995;DHT22;51687;52.160;5.298;2023-04-03T20:48:23;15.10;34.00
43995;DHT22;51687;52.160;5.298;2023-04-03T20:50:50;15.00;33.80
43995;DHT22;51687;52.160;5.298;2023-04-03T20:53:18;15.00;33.80
43995;DHT22;51687;52.160;5.298;2023-04-03T20:55:56;15.00;33.90
43995;DHT22;51687;52.160;5.298;2023-04-03T20:58:27;15.00;34.20
43995;DHT22;51687;52.160;5.298;2023-04-03T21:00:56;14.90;34.20
43995;DHT22;51687;52.160;5.298;2023-04-03T21:03:24;14.90;34.50
43995;DHT22;51687;52.160;5.298;2023-04-03T21:20:34;14.80;34.90
43995;DHT22;51687;52.160;5.298;2023-04-03T21:23:00;14.80;35.00
43995;DHT22;51687;52.160;5.298;2023-04-03T21:25:27;14.80;35.40
43995;DHT22;51687;52.160;5.298;2023-04-03T21:27:54;14.80;35.20
43995;DHT22;51687;52.160;5.298;2023-04-03T21:30:21;14.70;34.90
43995;DHT22;51687;52.160;5.298;2023-04-03T21:32:48;14.70;34.90
43995;DHT22;51687;52.160;5.298;2023-04-03T21:35:15;14.70;35.10
43995;DHT22;51687;52.160;5.298;2023-04-03T21:37:42;14.60;35.30
43995;DHT22;51687;52.160;5.298;2023-04-03T21:40:08;14.60;35.30
43995;DHT22;51687;52.160;5.298;2023-04-03T21:42:35;14.50;35.50
43995;DHT22;51687;52.160;5.298;2023-04-03T21:45:02;14.50;35.30
43995;DHT22;51687;52.160;5.298;2023-04-03T21:47:29;14.40;35.40
43995;DHT22;51687;52.160;5.298;2023-04-03T21:49:56;14.40;35.60
43995;DHT22;51687;52.160;5.298;2023-04-03T21:52:24;14.40;35.70
43995;DHT22;51687;52.160;5.298;2023-04-03T21:54:51;14.40;35.80
43995;DHT22;51687;52.160;5.298;2023-04-03T21:57:18;14.40;35.80
43995;DHT22;51687;52.160;5.298;2023-04-03T21:59:47;14.30;35.60
43995;DHT22;51687;52.160;5.298;2023-04-03T22:02:14;14.30;36.00
43995;DHT22;51687;52.160;5.298;2023-04-03T22:04:41;14.30;36.00
43995;DHT22;51687;52.160;5.298;2023-04-03T22:07:08;14.30;35.90
43995;DHT22;51687;52.160;5.298;2023-04-03T22:09:35;14.30;35.80
43995;DHT22;51687;52.160;5.298;2023-04-03T22:12:02;14.20;36.00
43995;DHT22;51687;52.160;5.298;2023-04-03T22:14:30;14.20;35.90
43995;DHT22;51687;52.160;5.298;2023-04-03T22:16:57;14.20;36.00
43995;DHT22;51687;52.160;5.298;2023-04-03T22:19:23;14.10;36.10
43995;DHT22;51687;52.160;5.298;2023-04-03T22:21:50;14.10;36.40
43995;DHT22;51687;52.160;5.298;2023-04-03T22:24:18;14.00;36.50
43995;DHT22;51687;52.160;5.298;2023-04-03T22:26:45;13.90;36.50
43995;DHT22;51687;52.160;5.298;2023-04-03T22:29:13;13.90;36.50
43995;DHT22;51687;52.160;5.298;2023-04-03T22:31:41;13.90;36.50
43995;DHT22;51687;52.160;5.298;2023-04-03T22:34:08;13.90;36.60
43995;DHT22;51687;52.160;5.298;2023-04-03T22:36:35;13.90;36.40
43995;DHT22;51687;52.160;5.298;2023-04-03T22:39:02;13.90;36.30
43995;DHT22;51687;52.160;5.298;2023-04-03T22:41:32;13.80;36.50
43995;DHT22;51687;52.160;5.298;2023-04-03T22:43:59;13.80;36.30
43995;DHT22;51687;52.160;5.298;2023-04-03T22:46:25;13.80;36.50
43995;DHT22;51687;52.160;5.298;2023-04-03T22:48:53;13.70;36.30
43995;DHT22;51687;52.160;5.298;2023-04-03T22:51:20;13.70;36.20
43995;DHT22;51687;52.160;5.298;2023-04-03T22:53:47;13.60;36.40
43995;DHT22;51687;52.160;5.298;2023-04-03T22:56:13;13.60;36.40
43995;DHT22;51687;52.160;5.298;2023-04-03T22:58:40;13.60;36.50
43995;DHT22;51687;52.160;5.298;2023-04-03T23:03:35;13.50;36.50
43995;DHT22;51687;52.160;5.298;2023-04-03T23:06:03;13.50;36.40
43995;DHT22;51687;52.160;5.298;2023-04-03T23:08:31;13.40;36.30
43995;DHT22;51687;52.160;5.298;2023-04-03T23:10:59;13.40;36.50
43995;DHT22;51687;52.160;5.298;2023-04-03T23:13:26;13.40;36.40
43995;DHT22;51687;52.160;5.298;2023-04-03T23:15:57;13.30;36.50
43995;DHT22;51687;52.160;5.298;2023-04-03T23:18:26;13.30;36.70
43995;DHT22;51687;52.160;5.298;2023-04-03T23:20:57;13.20;36.40
43995;DHT22;51687;52.160;5.298;2023-04-03T23:23:24;13.20;36.70
43995;DHT22;51687;52.160;5.298;2023-04-03T23:25:55;13.20;36.90
43995;DHT22;51687;52.160;5.298;2023-04-03T23:28:23;13.20;36.90
43995;DHT22;51687;52.160;5.298;2023-04-03T23:31:04;13.20;37.20
43995;DHT22;51687;52.160;5.298;2023-04-03T23:33:32;13.20;36.90
43995;DHT22;51687;52.160;5.298;2023-04-03T23:36:04;13.20;36.90
43995;DHT22;51687;52.160;5.298;2023-04-03T23:38:32;13.20;36.80
43995;DHT22;51687;52.160;5.298;2023-04-03T23:40:59;13.30;37.00
43995;DHT22;51687;52.160;5.298;2023-04-03T23:43:26;13.30;36.90
43995;DHT22;51687;52.160;5.298;2023-04-03T23:45:54;13.30;36.80
43995;DHT22;51687;52.160;5.298;2023-04-03T23:48:20;13.30;36.90
43995;DHT22;51687;52.160;5.298;2023-04-03T23:50:47;13.30;37.30
43995;DHT22;51687;52.160;5.298;2023-04-03T23:53:14;13.40;37.20
43995;DHT22;51687;52.160;5.298;2023-04-03T23:55:41;13.40;37.10
43995;DHT22;51687;52.160;5.298;2023-04-03T23:58:07;13.40;37.10
